^^
Saratoga-Weather Station Historical Data
Daily Summary for June 12, 2021 Units:  Metric    English   Both
Daily Weekly Monthly Yearly Custom
  High: Low: Average:
Temperature: 24.2 °C 17.1 °C 20.2 °C
Dew Point: 16.6 °C 14.5 °C 15.6 °C
Humidity: 89% 57% 76%
Wind Speed: 19.5km/h 0km/h 6.3km/h
Wind Gust: 24.1km/h - -
Wind- - West
Pressure: 1019.6 hPa 1018.0 hPa -
Precipitation: 0.0 mm    
Historical Graphs
 
 
Tabular Data for June 12, 2021
Time Temperature Dew Point Pressure Wind Wind Speed Wind Gust Humidity Rainfall Rate (Hourly) solar
00:00 21.1 °C 16.5 °C 1018.3 hPa West 4.7 km/h 14.5 km/h 75% 0.0 mm 0 W/m2
00:05 21 °C 16.4 °C 1018.3 hPa WSW 6.4 km/h 12.9 km/h 75% 0.0 mm 0 W/m2
00:10 20.9 °C 16.5 °C 1018.3 hPa West 6.4 km/h 14.5 km/h 76% 0.0 mm 0 W/m2
00:15 20.8 °C 16.4 °C 1018.3 hPa WSW 6.4 km/h 11.3 km/h 76% 0.0 mm 0 W/m2
00:20 20.7 °C 16.3 °C 1018.3 hPa WNW 6.4 km/h 11.3 km/h 76% 0.0 mm 0 W/m2
00:25 20.6 °C 16.2 °C 1018.3 hPa WSW 6.4 km/h 9.7 km/h 76% 0.0 mm 0 W/m2
00:30 20.5 °C 16.1 °C 1018.3 hPa West 6.4 km/h 9.7 km/h 76% 0.0 mm 0 W/m2
00:35 20.5 °C 16.1 °C 1018.3 hPa WSW 4.7 km/h 6.4 km/h 76% 0.0 mm 0 W/m2
00:40 20.4 °C 16 °C 1018.3 hPa West 4.7 km/h 6.4 km/h 76% 0.0 mm 0 W/m2
00:45 20.4 °C 16 °C 1018.3 hPa West 9.7 km/h 9.7 km/h 76% 0.0 mm 0 W/m2
00:50 20.3 °C 15.9 °C 1018.3 hPa West 4.7 km/h 9.7 km/h 76% 0.0 mm 0 W/m2
00:55 20.3 °C 16.1 °C 1018.6 hPa West 4.7 km/h 6.4 km/h 77% 0.0 mm 0 W/m2
01:00 20.2 °C 16 °C 1018.3 hPa West 6.4 km/h 11.3 km/h 77% 0.0 mm 0 W/m2
01:05 20.1 °C 15.9 °C 1018.3 hPa West 4.7 km/h 4.8 km/h 77% 0.0 mm 0 W/m2
01:10 20 °C 15.8 °C 1018.3 hPa West 4.7 km/h 11.3 km/h 77% 0.0 mm 0 W/m2
01:15 19.9 °C 15.7 °C 1018.6 hPa West 3.2 km/h 11.3 km/h 77% 0.0 mm 0 W/m2
01:20 19.9 °C 15.7 °C 1018.3 hPa West 6.4 km/h 6.4 km/h 77% 0.0 mm 0 W/m2
01:25 19.8 °C 15.7 °C 1018.3 hPa West 4.7 km/h 6.4 km/h 77% 0.0 mm 0 W/m2
01:30 19.8 °C 15.7 °C 1018.3 hPa WSW 4.7 km/h 8 km/h 77% 0.0 mm 0 W/m2
01:35 19.8 °C 15.9 °C 1018.3 hPa WNW 4.7 km/h 9.7 km/h 78% 0.0 mm 0 W/m2
01:40 19.7 °C 15.8 °C 1018.3 hPa West 3.2 km/h 6.4 km/h 78% 0.0 mm 0 W/m2
01:45 19.7 °C 15.8 °C 1018.3 hPa WNW 3.2 km/h 4.8 km/h 78% 0.0 mm 0 W/m2
01:50 19.7 °C 15.8 °C 1018.3 hPa West 3.2 km/h 6.4 km/h 78% 0.0 mm 0 W/m2
01:55 19.7 °C 15.6 °C 1018.3 hPa WSW 4.7 km/h 8 km/h 77% 0.0 mm 0 W/m2
02:00 19.7 °C 15.6 °C 1018.3 hPa West 6.4 km/h 12.9 km/h 77% 0.0 mm 0 W/m2
02:05 19.7 °C 15.8 °C 1018.3 hPa West 6.4 km/h 9.7 km/h 78% 0.0 mm 0 W/m2
02:10 19.6 °C 15.7 °C 1018.3 hPa WNW 3.2 km/h 9.7 km/h 78% 0.0 mm 0 W/m2
02:15 19.5 °C 15.6 °C 1018.3 hPa West 6.4 km/h 9.7 km/h 78% 0.0 mm 0 W/m2
02:20 19.5 °C 15.6 °C 1018.3 hPa West 3.2 km/h 9.7 km/h 78% 0.0 mm 0 W/m2
02:25 19.4 °C 15.7 °C 1018.3 hPa West 4.7 km/h 6.4 km/h 79% 0.0 mm 0 W/m2
02:30 19.3 °C 15.6 °C 1018.3 hPa West 6.4 km/h 8 km/h 79% 0.0 mm 0 W/m2
02:35 19.3 °C 15.6 °C 1018.3 hPa WSW 7.9 km/h 9.7 km/h 79% 0.0 mm 0 W/m2
02:40 19.2 °C 15.5 °C 1018.3 hPa West 4.7 km/h 6.4 km/h 79% 0.0 mm 0 W/m2
02:45 19.2 °C 15.5 °C 1018.3 hPa West 4.7 km/h 6.4 km/h 79% 0.0 mm 0 W/m2
02:50 19.2 °C 15.5 °C 1018.3 hPa West 3.2 km/h 6.4 km/h 79% 0.0 mm 0 W/m2
02:55 19.1 °C 15.6 °C 1018.3 hPa West 4.7 km/h 11.3 km/h 80% 0.0 mm 0 W/m2
03:00 19.1 °C 15.6 °C 1018.3 hPa West 3.2 km/h 6.4 km/h 80% 0.0 mm 0 W/m2
03:05 19 °C 15.5 °C 1018.3 hPa WSW 1.4 km/h 11.3 km/h 80% 0.0 mm 0 W/m2
03:10 18.9 °C 15.4 °C 1018.3 hPa WSW 3.2 km/h 4.8 km/h 80% 0.0 mm 0 W/m2
03:15 18.8 °C 15.5 °C 1018.0 hPa West 6.4 km/h 6.4 km/h 81% 0.0 mm 0 W/m2
03:20 18.8 °C 15.5 °C 1018.0 hPa West 3.2 km/h 6.4 km/h 81% 0.0 mm 0 W/m2
03:25 18.8 °C 15.5 °C 1018.0 hPa West 3.2 km/h 6.4 km/h 81% 0.0 mm 0 W/m2
03:30 18.7 °C 15.6 °C 1018.0 hPa West 4.7 km/h 4.8 km/h 82% 0.0 mm 0 W/m2
03:35 18.7 °C 15.6 °C 1018.0 hPa Calm   6.4 km/h 82% 0.0 mm 0 W/m2
03:40 18.6 °C 15.5 °C 1018.0 hPa West 1.4 km/h 1.6 km/h 82% 0.0 mm 0 W/m2
03:45 18.6 °C 15.5 °C 1018.3 hPa West 1.4 km/h 1.6 km/h 82% 0.0 mm 0 W/m2
03:50 18.3 °C 15.4 °C 1018.0 hPa West 3.2 km/h 3.2 km/h 83% 0.0 mm 0 W/m2
03:55 18.2 °C 15.3 °C 1018.0 hPa West 3.2 km/h 3.2 km/h 83% 0.0 mm 0 W/m2
04:00 18.1 °C 15.4 °C 1018.0 hPa West 1.4 km/h 4.8 km/h 84% 0.0 mm 0 W/m2
04:05 18.1 °C 15.4 °C 1018.0 hPa WSW 1.4 km/h 3.2 km/h 84% 0.0 mm 0 W/m2
04:10 18.1 °C 15.4 °C 1018.0 hPa WSW 1.4 km/h 3.2 km/h 84% 0.0 mm 0 W/m2
04:15 18 °C 15.3 °C 1018.0 hPa West 3.2 km/h 3.2 km/h 84% 0.0 mm 0 W/m2
04:20 17.8 °C 15.2 °C 1018.0 hPa WNW 1.4 km/h 4.8 km/h 85% 0.0 mm 0 W/m2
04:25 17.7 °C 15.1 °C 1018.0 hPa Calm   6.4 km/h 85% 0.0 mm 0 W/m2
04:30 17.7 °C 15.3 °C 1018.0 hPa Calm   1.6 km/h 86% 0.0 mm 0 W/m2
04:35 17.6 °C 15.2 °C 1018.0 hPa Calm   6.4 km/h 86% 0.0 mm 0 W/m2
04:40 17.4 °C 15 °C 1018.0 hPa WNW 1.4 km/h 3.2 km/h 86% 0.0 mm 0 W/m2
04:45 17.3 °C 14.9 °C 1018.3 hPa Calm   1.6 km/h 86% 0.0 mm 0 W/m2
04:50 17.3 °C 15.1 °C 1018.3 hPa WNW 3.2 km/h 3.2 km/h 87% 0.0 mm 0 W/m2
04:55 17.1 °C 14.9 °C 1018.3 hPa WNW 1.4 km/h 3.2 km/h 87% 0.0 mm 0 W/m2
05:01 17.1 °C 15.1 °C 1018.3 hPa WNW 3.2 km/h 4.8 km/h 88% 0.0 mm 0 W/m2
05:06 17.1 °C 15.1 °C 1018.3 hPa West 3.2 km/h 9.7 km/h 88% 0.0 mm 0 W/m2
05:11 17.2 °C 15.2 °C 1018.3 hPa West 4.7 km/h 6.4 km/h 88% 0.0 mm 0 W/m2
05:16 17.2 °C 15.2 °C 1018.6 hPa WNW 4.7 km/h 6.4 km/h 88% 0.0 mm 0 W/m2
05:21 17.2 °C 15.2 °C 1018.3 hPa WNW 1.4 km/h 6.4 km/h 88% 0.0 mm 0 W/m2
05:26 17.3 °C 15.3 °C 1018.3 hPa West 3.2 km/h 9.7 km/h 88% 0.0 mm 0 W/m2
05:31 17.2 °C 15.2 °C 1018.3 hPa WNW 3.2 km/h 6.4 km/h 88% 0.0 mm 0 W/m2
05:36 17.2 °C 15.2 °C 1018.3 hPa WNW 4.7 km/h 6.4 km/h 88% 0.0 mm 0 W/m2
05:41 17.2 °C 15.2 °C 1018.3 hPa West 4.7 km/h 6.4 km/h 88% 0.0 mm 5 W/m2
05:46 17.2 °C 15.2 °C 1018.6 hPa West 4.7 km/h 11.3 km/h 88% 0.0 mm 7 W/m2
05:51 17.2 °C 15.2 °C 1018.6 hPa West 4.7 km/h 11.3 km/h 88% 0.0 mm 11 W/m2
05:56 17.1 °C 15.1 °C 1018.6 hPa WSW 6.4 km/h 6.4 km/h 88% 0.0 mm 14 W/m2
06:01 17.1 °C 15.1 °C 1018.6 hPa Calm   3.2 km/h 88% 0.0 mm 19 W/m2
06:06 17.1 °C 15.1 °C 1018.6 hPa West 4.7 km/h 6.4 km/h 88% 0.0 mm 25 W/m2
06:11 17.1 °C 15.3 °C 1018.6 hPa West 3.2 km/h 6.4 km/h 89% 0.0 mm 28 W/m2
06:16 17.1 °C 15.3 °C 1018.6 hPa WNW 3.2 km/h 3.2 km/h 89% 0.0 mm 30 W/m2
06:21 17.2 °C 15.4 °C 1019.0 hPa WNW 3.2 km/h 4.8 km/h 89% 0.0 mm 28 W/m2
06:26 17.3 °C 15.5 °C 1019.0 hPa West 3.2 km/h 4.8 km/h 89% 0.0 mm 28 W/m2
06:31 17.3 °C 15.3 °C 1019.0 hPa West 4.7 km/h 4.8 km/h 88% 0.0 mm 30 W/m2
06:36 17.3 °C 15.3 °C 1019.0 hPa WSW 4.7 km/h 6.4 km/h 88% 0.0 mm 32 W/m2
06:41 17.4 °C 15.4 °C 1019.0 hPa West 4.7 km/h 4.8 km/h 88% 0.0 mm 35 W/m2
06:46 17.4 °C 15.4 °C 1019.0 hPa West 3.2 km/h 3.2 km/h 88% 0.0 mm 44 W/m2
06:51 17.5 °C 15.7 °C 1019.0 hPa WSW 1.4 km/h 6.4 km/h 89% 0.0 mm 49 W/m2
06:56 17.6 °C 15.8 °C 1019.0 hPa WSW 1.4 km/h 3.2 km/h 89% 0.0 mm 32 W/m2
07:01 17.6 °C 15.6 °C 1019.0 hPa Calm   6.4 km/h 88% 0.0 mm 30 W/m2
07:06 17.7 °C 15.7 °C 1018.6 hPa Calm     88% 0.0 mm 35 W/m2
07:11 17.8 °C 15.8 °C 1019.0 hPa Calm   1.6 km/h 88% 0.0 mm 37 W/m2
07:16 17.9 °C 15.7 °C 1019.0 hPa NW 1.4 km/h 3.2 km/h 87% 0.0 mm 39 W/m2
07:21 18 °C 15.8 °C 1019.0 hPa WNW 3.2 km/h 4.8 km/h 87% 0.0 mm 40 W/m2
07:26 18.2 °C 16 °C 1019.0 hPa WNW 1.4 km/h 4.8 km/h 87% 0.0 mm 42 W/m2
07:31 18.4 °C 16 °C 1019.0 hPa NW 4.7 km/h 4.8 km/h 86% 0.0 mm 47 W/m2
07:36 18.8 °C 16.2 °C 1019.0 hPa WSW 7.9 km/h 12.9 km/h 85% 0.0 mm 63 W/m2
07:41 19 °C 16.2 °C 1019.0 hPa West 4.7 km/h 14.5 km/h 84% 0.0 mm 130 W/m2
07:46 19.1 °C 16.3 °C 1019.0 hPa WNW 9.7 km/h 16.1 km/h 84% 0.0 mm 260 W/m2
07:51 19.2 °C 16.4 °C 1019.0 hPa WSW 6.4 km/h 14.5 km/h 84% 0.0 mm 285 W/m2
07:56 19.3 °C 16.3 °C 1019.0 hPa NW 9.7 km/h 9.7 km/h 83% 0.0 mm 288 W/m2
08:01 19.4 °C 16.4 °C 1019.0 hPa West 6.4 km/h 16.1 km/h 83% 0.0 mm 322 W/m2
08:06 19.5 °C 16.5 °C 1019.0 hPa WSW 19.5 km/h 19.3 km/h 83% 0.0 mm 306 W/m2
08:11 19.5 °C 16.5 °C 1019.0 hPa SW 9.7 km/h 14.5 km/h 83% 0.0 mm 225 W/m2
08:16 19.6 °C 16.6 °C 1019.0 hPa NW 4.7 km/h 12.9 km/h 83% 0.0 mm 149 W/m2
08:21 19.8 °C 16.4 °C 1019.0 hPa WNW 11.1 km/h 14.5 km/h 81% 0.0 mm 148 W/m2
08:26 19.8 °C 16.4 °C 1019.3 hPa WNW 13 km/h 14.5 km/h 81% 0.0 mm 151 W/m2
08:31 19.9 °C 16.5 °C 1019.3 hPa West 11.1 km/h 14.5 km/h 81% 0.0 mm 144 W/m2
08:36 20.1 °C 16.3 °C 1019.3 hPa West 6.4 km/h 16.1 km/h 79% 0.0 mm 125 W/m2
08:41 20.1 °C 16.1 °C 1019.3 hPa West 9.7 km/h 20.9 km/h 78% 0.0 mm 109 W/m2
08:46 20.1 °C 15.9 °C 1019.6 hPa NW 7.9 km/h 16.1 km/h 77% 0.0 mm 97 W/m2
08:51 20.1 °C 16.1 °C 1019.3 hPa West 9.7 km/h 20.9 km/h 78% 0.0 mm 104 W/m2
08:56 20.2 °C 15.8 °C 1019.3 hPa West 9.7 km/h 9.7 km/h 76% 0.0 mm 114 W/m2
09:01 20.3 °C 15.7 °C 1019.3 hPa WNW 11.1 km/h 20.9 km/h 75% 0.0 mm 132 W/m2
09:06 20.4 °C 15.8 °C 1019.3 hPa West 4.7 km/h 6.4 km/h 75% 0.0 mm 151 W/m2
09:11 20.5 °C 15.9 °C 1019.0 hPa SSW 9.7 km/h 14.5 km/h 75% 0.0 mm 230 W/m2
09:16 20.5 °C 15.9 °C 1019.3 hPa WNW 3.2 km/h 11.3 km/h 75% 0.0 mm 341 W/m2
09:21 20.4 °C 15.6 °C 1019.3 hPa West 11.1 km/h 11.3 km/h 74% 0.0 mm 371 W/m2
09:26 20.3 °C 15.7 °C 1019.3 hPa WNW 6.4 km/h 12.9 km/h 75% 0.0 mm 394 W/m2
09:31 20.4 °C 15.8 °C 1019.3 hPa WNW 3.2 km/h 11.3 km/h 75% 0.0 mm 446 W/m2
09:36 20.4 °C 15.6 °C 1019.3 hPa NW 6.4 km/h 19.3 km/h 74% 0.0 mm 392 W/m2
09:41 20.4 °C 15.8 °C 1019.3 hPa West 14.3 km/h 16.1 km/h 75% 0.0 mm 520 W/m2
09:46 20.5 °C 15.5 °C 1019.3 hPa North 4.7 km/h 19.3 km/h 73% 0.0 mm 462 W/m2
09:51 20.7 °C 15.7 °C 1019.3 hPa West 6.4 km/h 14.5 km/h 73% 0.0 mm 540 W/m2
09:56 20.9 °C 15.7 °C 1019.3 hPa WNW 11.1 km/h 16.1 km/h 72% 0.0 mm 526 W/m2
10:01 21.1 °C 15.6 °C 1019.3 hPa WNW 7.9 km/h 14.5 km/h 71% 0.0 mm 450 W/m2
10:06 21.1 °C 15.9 °C 1019.3 hPa West 11.1 km/h 14.5 km/h 72% 0.0 mm 492 W/m2
10:11 21.2 °C 15.7 °C 1019.0 hPa West 9.7 km/h 16.1 km/h 71% 0.0 mm 241 W/m2
10:16 21.3 °C 15.8 °C 1019.3 hPa WNW 6.4 km/h 14.5 km/h 71% 0.0 mm 601 W/m2
10:21 21.6 °C 15.7 °C 1019.3 hPa West 4.7 km/h 8 km/h 69% 0.0 mm 258 W/m2
10:26 21.7 °C 15.8 °C 1019.3 hPa WSW 6.4 km/h 12.9 km/h 69% 0.0 mm 696 W/m2
10:31 21.7 °C 15.1 °C 1019.3 hPa WNW 6.4 km/h 19.3 km/h 66% 0.0 mm 605 W/m2
10:36 21.5 °C 14.9 °C 1019.0 hPa West 6.4 km/h 16.1 km/h 66% 0.0 mm 506 W/m2
10:41 21.5 °C 15.3 °C 1019.0 hPa WNW 4.7 km/h 19.3 km/h 68% 0.0 mm 629 W/m2
10:46 21.8 °C 15.4 °C 1019.0 hPa WSW 11.1 km/h 16.1 km/h 67% 0.0 mm 735 W/m2
10:51 21.9 °C 15.3 °C 1019.0 hPa WNW 4.7 km/h 14.5 km/h 66% 0.0 mm 679 W/m2
10:56 22.1 °C 15.7 °C 1019.0 hPa WNW 4.7 km/h 16.1 km/h 67% 0.0 mm 661 W/m2
11:01 22.2 °C 15.1 °C 1019.3 hPa WSW 11.1 km/h 12.9 km/h 64% 0.0 mm 682 W/m2
11:06 22.3 °C 14.7 °C 1019.3 hPa West 9.7 km/h 20.9 km/h 62% 0.0 mm 575 W/m2
11:11 22.2 °C 15.1 °C 1019.3 hPa NW 6.4 km/h 17.7 km/h 64% 0.0 mm 656 W/m2
11:16 22.2 °C 14.8 °C 1019.3 hPa WSW 11.1 km/h 20.9 km/h 63% 0.0 mm 482 W/m2
11:21 22.3 °C 14.7 °C 1019.3 hPa NNW 9.7 km/h 17.7 km/h 62% 0.0 mm 666 W/m2
11:26 22.3 °C 14.7 °C 1019.3 hPa WNW 7.9 km/h 20.9 km/h 62% 0.0 mm 729 W/m2
11:31 22.4 °C 14.5 °C 1019.3 hPa West 6.4 km/h 12.9 km/h 61% 0.0 mm 480 W/m2
11:36 22.6 °C 14.9 °C 1019.3 hPa West 9.7 km/h 17.7 km/h 62% 0.0 mm 737 W/m2
11:41 22.4 °C 14.5 °C 1019.6 hPa WSW 11.1 km/h 19.3 km/h 61% 0.0 mm 503 W/m2
11:46 22.4 °C 15 °C 1019.6 hPa West 14.3 km/h 14.5 km/h 63% 0.0 mm 696 W/m2
11:51 22.7 °C 15 °C 1019.6 hPa WSW 16.3 km/h 16.1 km/h 62% 0.0 mm 652 W/m2
11:56 22.7 °C 14.8 °C 1019.6 hPa WNW 11.1 km/h 16.1 km/h 61% 0.0 mm 726 W/m2
12:01 22.8 °C 15.4 °C 1019.6 hPa WNW 7.9 km/h 17.7 km/h 63% 0.0 mm 773 W/m2
12:06 23 °C 15.1 °C 1019.6 hPa WSW 7.9 km/h 12.9 km/h 61% 0.0 mm 738 W/m2
12:11 23.1 °C 15.4 °C 1019.6 hPa NW 6.4 km/h 14.5 km/h 62% 0.0 mm 802 W/m2
12:16 23.2 °C 15.8 °C 1019.6 hPa NW 7.9 km/h 22.5 km/h 63% 0.0 mm 858 W/m2
12:21 23.2 °C 15.8 °C 1019.6 hPa WNW 16.3 km/h 16.1 km/h 63% 0.0 mm 896 W/m2
12:26 23.3 °C 15.9 °C 1019.6 hPa West 6.4 km/h 22.5 km/h 63% 0.0 mm 853 W/m2
12:31 23.4 °C 15.7 °C 1019.6 hPa West 16.3 km/h 22.5 km/h 62% 0.0 mm 902 W/m2
12:36 23.6 °C 15.9 °C 1019.6 hPa NW 6.4 km/h 12.9 km/h 62% 0.0 mm 875 W/m2
12:41 24 °C 15.2 °C 1019.6 hPa WNW 16.3 km/h 22.5 km/h 58% 0.0 mm 879 W/m2
12:46 23.8 °C 15.3 °C 1019.6 hPa WSW 13 km/h 24.1 km/h 59% 0.0 mm 861 W/m2
12:51 23.6 °C 15.4 °C 1019.6 hPa WNW 13 km/h 24.1 km/h 60% 0.0 mm 918 W/m2
12:56 23.4 °C 15.4 °C 1019.6 hPa West 11.1 km/h 20.9 km/h 61% 0.0 mm 912 W/m2
13:01 23.7 °C 16 °C 1019.6 hPa WSW 7.9 km/h 12.9 km/h 62% 0.0 mm 1007 W/m2
13:07 23.6 °C 15.9 °C 1019.6 hPa West 13 km/h 12.9 km/h 62% 0.0 mm 339 W/m2
13:12 23.6 °C 15.6 °C 1019.6 hPa NNE 3.2 km/h 19.3 km/h 61% 0.0 mm 858 W/m2
13:17 23.6 °C 16.1 °C 1019.6 hPa West 14.3 km/h 19.3 km/h 63% 0.0 mm 858 W/m2
13:22 23.6 °C 15.9 °C 1019.6 hPa NW 13 km/h 17.7 km/h 62% 0.0 mm 308 W/m2
13:27 23.3 °C 15.6 °C 1019.6 hPa West 14.3 km/h 22.5 km/h 62% 0.0 mm 926 W/m2
13:32 23.4 °C 15.7 °C 1019.6 hPa WNW 7.9 km/h 17.7 km/h 62% 0.0 mm 290 W/m2
13:37 23.4 °C 16.2 °C 1019.6 hPa NNW 13 km/h 22.5 km/h 64% 0.0 mm 309 W/m2
13:42 23.6 °C 15.9 °C 1019.6 hPa WNW 6.4 km/h 12.9 km/h 62% 0.0 mm 912 W/m2
13:47 23.8 °C 16.1 °C 1019.6 hPa North 3.2 km/h 17.7 km/h 62% 0.0 mm 946 W/m2
13:52 24.2 °C 15.1 °C 1019.6 hPa NW 11.1 km/h 14.5 km/h 57% 0.0 mm 842 W/m2
13:57 23.9 °C 15.1 °C 1019.6 hPa WNW 7.9 km/h 14.5 km/h 58% 0.0 mm 476 W/m2
14:02 23.8 °C 15.8 °C 1019.6 hPa WNW 3.2 km/h 12.9 km/h 61% 0.0 mm 304 W/m2
14:07 23.7 °C 15.5 °C 1019.6 hPa West 16.3 km/h 16.1 km/h 60% 0.0 mm 236 W/m2
14:12 23.4 °C 15.2 °C 1019.6 hPa WSW 13 km/h 17.7 km/h 60% 0.0 mm 185 W/m2
14:17 23.2 °C 15.8 °C 1019.6 hPa WNW 4.7 km/h 9.7 km/h 63% 0.0 mm 274 W/m2
14:22 23.3 °C 15.9 °C 1019.6 hPa NW 7.9 km/h 17.7 km/h 63% 0.0 mm 415 W/m2
14:27 23.4 °C 16 °C 1019.6 hPa West 4.7 km/h 14.5 km/h 63% 0.0 mm 573 W/m2
14:32 23.5 °C 16 °C 1019.6 hPa West 11.1 km/h 14.5 km/h 63% 0.0 mm 390 W/m2
14:37 23.4 °C 16 °C 1019.6 hPa NW 4.7 km/h 14.5 km/h 63% 0.0 mm 424 W/m2
Juneau County Weather
Compliments of Weather Underground - 2 mb